sensor_id;sensor_type;location;lat;lon;timestamp;temperature;humidity
23233;DHT22;11785;49.500;8.288;2024-03-29T00:01:33;5.90;99.90
23233;DHT22;11785;49.500;8.288;2024-03-29T00:03:58;6.00;99.90
23233;DHT22;11785;49.500;8.288;2024-03-29T00:06:24;6.10;99.90
23233;DHT22;11785;49.500;8.288;2024-03-29T00:08:49;6.10;99.90
23233;DHT22;11785;49.500;8.288;2024-03-29T00:11:15;6.10;99.90
23233;DHT22;11785;49.500;8.288;2024-03-29T00:13:40;6.20;99.90
23233;DHT22;11785;49.500;8.288;2024-03-29T00:16:06;6.20;99.90
23233;DHT22;11785;49.500;8.288;2024-03-29T00:18:32;6.20;99.90
23233;DHT22;11785;49.500;8.288;2024-03-29T00:20:57;6.30;99.90
23233;DHT22;11785;49.500;8.288;2024-03-29T00:23:23;6.40;99.90
23233;DHT22;11785;49.500;8.288;2024-03-29T00:25:48;6.40;99.90
23233;DHT22;11785;49.500;8.288;2024-03-29T00:28:14;6.40;99.90
23233;DHT22;11785;49.500;8.288;2024-03-29T00:30:40;6.40;99.90
23233;DHT22;11785;49.500;8.288;2024-03-29T00:33:05;6.50;99.90
23233;DHT22;11785;49.500;8.288;2024-03-29T00:35:31;6.50;99.90
23233;DHT22;11785;49.500;8.288;2024-03-29T00:37:56;6.70;99.80
23233;DHT22;11785;49.500;8.288;2024-03-29T00:40:22;6.70;99.10
23233;DHT22;11785;49.500;8.288;2024-03-29T00:42:48;6.80;98.50
23233;DHT22;11785;49.500;8.288;2024-03-29T00:45:13;6.80;98.10
23233;DHT22;11785;49.500;8.288;2024-03-29T00:47:39;6.90;97.30
23233;DHT22;11785;49.500;8.288;2024-03-29T00:50:05;6.90;97.40
23233;DHT22;11785;49.500;8.288;2024-03-29T00:52:30;7.00;96.80
23233;DHT22;11785;49.500;8.288;2024-03-29T00:54:56;7.00;96.50
23233;DHT22;11785;49.500;8.288;2024-03-29T00:57:21;7.10;95.90
23233;DHT22;11785;49.500;8.288;2024-03-29T00:59:47;7.10;95.60
23233;DHT22;11785;49.500;8.288;2024-03-29T01:02:13;7.10;95.40
23233;DHT22;11785;49.500;8.288;2024-03-29T01:04:38;7.20;95.10
23233;DHT22;11785;49.500;8.288;2024-03-29T01:07:05;7.20;95.10
23233;DHT22;11785;49.500;8.288;2024-03-29T01:09:31;7.20;94.80
23233;DHT22;11785;49.500;8.288;2024-03-29T01:11:56;7.20;95.10
23233;DHT22;11785;49.500;8.288;2024-03-29T01:14:22;7.20;94.90
23233;DHT22;11785;49.500;8.288;2024-03-29T01:16:48;7.20;95.10
23233;DHT22;11785;49.500;8.288;2024-03-29T01:19:13;7.20;94.60
23233;DHT22;11785;49.500;8.288;2024-03-29T01:21:39;7.20;94.30
23233;DHT22;11785;49.500;8.288;2024-03-29T01:24:04;7.20;94.40
23233;DHT22;11785;49.500;8.288;2024-03-29T01:26:30;7.20;94.30
23233;DHT22;11785;49.500;8.288;2024-03-29T01:28:56;7.20;94.20
23233;DHT22;11785;49.500;8.288;2024-03-29T01:31:25;7.20;94.10
23233;DHT22;11785;49.500;8.288;2024-03-29T01:33:51;7.20;94.20
23233;DHT22;11785;49.500;8.288;2024-03-29T01:36:16;7.20;94.20
23233;DHT22;11785;49.500;8.288;2024-03-29T01:38:42;7.10;94.40
23233;DHT22;11785;49.500;8.288;2024-03-29T01:41:11;7.10;94.40
23233;DHT22;11785;49.500;8.288;2024-03-29T01:43:37;7.10;94.50
23233;DHT22;11785;49.500;8.288;2024-03-29T01:46:04;7.00;94.80
23233;DHT22;11785;49.500;8.288;2024-03-29T01:48:31;7.00;95.00
23233;DHT22;11785;49.500;8.288;2024-03-29T01:50:58;6.90;95.30
23233;DHT22;11785;49.500;8.288;2024-03-29T01:53:24;6.90;95.30
23233;DHT22;11785;49.500;8.288;2024-03-29T01:55:51;7.00;94.60
23233;DHT22;11785;49.500;8.288;2024-03-29T01:58:18;7.00;94.60
23233;DHT22;11785;49.500;8.288;2024-03-29T02:00:53;7.00;94.40
23233;DHT22;11785;49.500;8.288;2024-03-29T02:03:22;7.10;93.60
23233;DHT22;11785;49.500;8.288;2024-03-29T02:05:49;7.10;93.60
23233;DHT22;11785;49.500;8.288;2024-03-29T02:08:15;7.20;93.60
23233;DHT22;11785;49.500;8.288;2024-03-29T02:10:42;7.20;93.10
23233;DHT22;11785;49.500;8.288;2024-03-29T02:15:42;7.30;93.30
23233;DHT22;11785;49.500;8.288;2024-03-29T02:18:08;7.30;93.50
23233;DHT22;11785;49.500;8.288;2024-03-29T02:20:34;7.30;93.20
23233;DHT22;11785;49.500;8.288;2024-03-29T02:23:13;7.30;93.80
23233;DHT22;11785;49.500;8.288;2024-03-29T02:25:39;7.30;93.50
23233;DHT22;11785;49.500;8.288;2024-03-29T02:28:05;7.30;93.30
23233;DHT22;11785;49.500;8.288;2024-03-29T02:30:31;7.40;92.80
23233;DHT22;11785;49.500;8.288;2024-03-29T02:32:58;7.40;92.80
23233;DHT22;11785;49.500;8.288;2024-03-29T02:35:24;7.40;92.90
23233;DHT22;11785;49.500;8.288;2024-03-29T02:37:50;7.40;92.50
23233;DHT22;11785;49.500;8.288;2024-03-29T02:40:16;7.40;92.40
23233;DHT22;11785;49.500;8.288;2024-03-29T02:42:41;7.50;91.40
23233;DHT22;11785;49.500;8.288;2024-03-29T02:45:08;7.50;91.90
23233;DHT22;11785;49.500;8.288;2024-03-29T02:47:33;7.60;90.80
23233;DHT22;11785;49.500;8.288;2024-03-29T02:49:59;7.70;90.40
23233;DHT22;11785;49.500;8.288;2024-03-29T02:52:24;7.70;90.30
23233;DHT22;11785;49.500;8.288;2024-03-29T02:54:50;7.70;90.40
23233;DHT22;11785;49.500;8.288;2024-03-29T02:57:16;7.60;91.00
23233;DHT22;11785;49.500;8.288;2024-03-29T02:59:41;7.70;89.60
23233;DHT22;11785;49.500;8.288;2024-03-29T03:02:07;7.70;89.90
23233;DHT22;11785;49.500;8.288;2024-03-29T03:04:32;7.80;89.30
23233;DHT22;11785;49.500;8.288;2024-03-29T03:06:58;7.80;89.10
23233;DHT22;11785;49.500;8.288;2024-03-29T03:09:44;7.80;89.00
23233;DHT22;11785;49.500;8.288;2024-03-29T03:12:29;7.80;89.10
23233;DHT22;11785;49.500;8.288;2024-03-29T03:14:55;7.80;87.90
23233;DHT22;11785;49.500;8.288;2024-03-29T03:17:20;7.90;87.10
23233;DHT22;11785;49.500;8.288;2024-03-29T03:19:46;7.90;87.10
23233;DHT22;11785;49.500;8.288;2024-03-29T03:22:12;7.90;87.00
23233;DHT22;11785;49.500;8.288;2024-03-29T03:24:38;8.00;87.90
23233;DHT22;11785;49.500;8.288;2024-03-29T03:27:03;7.90;90.10
23233;DHT22;11785;49.500;8.288;2024-03-29T03:29:29;7.90;88.60
23233;DHT22;11785;49.500;8.288;2024-03-29T03:31:54;7.90;88.40
23233;DHT22;11785;49.500;8.288;2024-03-29T03:34:20;8.00;86.60
23233;DHT22;11785;49.500;8.288;2024-03-29T03:36:46;8.00;86.40
23233;DHT22;11785;49.500;8.288;2024-03-29T03:39:11;8.10;84.20
23233;DHT22;11785;49.500;8.288;2024-03-29T03:41:37;8.20;84.20
23233;DHT22;11785;49.500;8.288;2024-03-29T03:44:02;8.20;83.80
23233;DHT22;11785;49.500;8.288;2024-03-29T03:46:28;8.20;84.10
23233;DHT22;11785;49.500;8.288;2024-03-29T03:48:53;8.30;84.30
23233;DHT22;11785;49.500;8.288;2024-03-29T03:51:19;8.30;83.50
23233;DHT22;11785;49.500;8.288;2024-03-29T03:53:44;8.30;84.70
23233;DHT22;11785;49.500;8.288;2024-03-29T03:56:10;8.30;84.10
23233;DHT22;11785;49.500;8.288;2024-03-29T03:58:36;8.30;85.00
23233;DHT22;11785;49.500;8.288;2024-03-29T04:01:04;8.20;86.40
23233;DHT22;11785;49.500;8.288;2024-03-29T04:03:30;8.20;86.90
23233;DHT22;11785;49.500;8.288;2024-03-29T04:05:56;8.10;89.40
23233;DHT22;11785;49.500;8.288;2024-03-29T04:08:22;8.10;88.60
23233;DHT22;11785;49.500;8.288;2024-03-29T04:10:48;8.10;90.30
23233;DHT22;11785;49.500;8.288;2024-03-29T04:13:13;7.90;91.30
23233;DHT22;11785;49.500;8.288;2024-03-29T04:15:39;7.80;92.00
23233;DHT22;11785;49.500;8.288;2024-03-29T04:18:05;7.60;94.00
23233;DHT22;11785;49.500;8.288;2024-03-29T04:20:31;7.60;94.20
23233;DHT22;11785;49.500;8.288;2024-03-29T04:22:57;7.50;94.50
23233;DHT22;11785;49.500;8.288;2024-03-29T04:25:23;7.50;94.10
23233;DHT22;11785;49.500;8.288;2024-03-29T04:27:48;7.60;94.10
23233;DHT22;11785;49.500;8.288;2024-03-29T04:30:14;7.60;94.50
23233;DHT22;11785;49.500;8.288;2024-03-29T04:32:39;7.60;94.80
23233;DHT22;11785;49.500;8.288;2024-03-29T04:35:05;7.50;95.90
23233;DHT22;11785;49.500;8.288;2024-03-29T04:37:31;7.50;96.80
23233;DHT22;11785;49.500;8.288;2024-03-29T04:39:56;7.50;97.10
23233;DHT22;11785;49.500;8.288;2024-03-29T04:42:22;7.50;98.10
23233;DHT22;11785;49.500;8.288;2024-03-29T04:44:48;7.40;99.90
23233;DHT22;11785;49.500;8.288;2024-03-29T04:47:13;7.40;99.90
23233;DHT22;11785;49.500;8.288;2024-03-29T04:49:39;7.40;99.90
23233;DHT22;11785;49.500;8.288;2024-03-29T04:52:05;7.40;99.90
23233;DHT22;11785;49.500;8.288;2024-03-29T04:54:32;7.30;99.90
23233;DHT22;11785;49.500;8.288;2024-03-29T04:57:01;7.30;99.90
23233;DHT22;11785;49.500;8.288;2024-03-29T04:59:29;7.30;99.90
23233;DHT22;11785;49.500;8.288;2024-03-29T05:01:55;7.30;99.90
23233;DHT22;11785;49.500;8.288;2024-03-29T05:04:22;7.30;99.90
23233;DHT22;11785;49.500;8.288;2024-03-29T05:06:57;7.30;99.90
23233;DHT22;11785;49.500;8.288;2024-03-29T05:09:24;7.30;99.90
23233;DHT22;11785;49.500;8.288;2024-03-29T05:11:50;7.40;99.90
23233;DHT22;11785;49.500;8.288;2024-03-29T05:14:17;7.40;99.90
23233;DHT22;11785;49.500;8.288;2024-03-29T05:16:47;7.50;99.90
23233;DHT22;11785;49.500;8.288;2024-03-29T05:19:14;7.50;99.90
23233;DHT22;11785;49.500;8.288;2024-03-29T05:21:41;7.50;99.90
23233;DHT22;11785;49.500;8.288;2024-03-29T05:24:07;7.50;99.90
23233;DHT22;11785;49.500;8.288;2024-03-29T05:26:33;7.50;99.90
23233;DHT22;11785;49.500;8.288;2024-03-29T05:28:59;7.60;99.90
23233;DHT22;11785;49.500;8.288;2024-03-29T05:31:25;7.60;99.90
23233;DHT22;11785;49.500;8.288;2024-03-29T05:33:52;7.60;99.90
23233;DHT22;11785;49.500;8.288;2024-03-29T05:36:17;7.60;99.90
23233;DHT22;11785;49.500;8.288;2024-03-29T05:38:44;7.70;99.90
23233;DHT22;11785;49.500;8.288;2024-03-29T05:41:10;7.70;99.90
23233;DHT22;11785;49.500;8.288;2024-03-29T05:43:36;7.70;99.90
23233;DHT22;11785;49.500;8.288;2024-03-29T05:46:02;7.80;99.90
23233;DHT22;11785;49.500;8.288;2024-03-29T05:48:28;7.80;99.90
23233;DHT22;11785;49.500;8.288;2024-03-29T05:50:54;7.80;99.90
23233;DHT22;11785;49.500;8.288;2024-03-29T05:53:21;7.90;99.30
23233;DHT22;11785;49.500;8.288;2024-03-29T05:55:46;7.90;99.90
23233;DHT22;11785;49.500;8.288;2024-03-29T05:58:12;8.00;99.90
23233;DHT22;11785;49.500;8.288;2024-03-29T06:00:42;8.00;99.90
23233;DHT22;11785;49.500;8.288;2024-03-29T06:03:08;8.00;99.90
23233;DHT22;11785;49.500;8.288;2024-03-29T06:05:34;8.00;99.90
23233;DHT22;11785;49.500;8.288;2024-03-29T06:08:00;8.00;99.90
23233;DHT22;11785;49.500;8.288;2024-03-29T06:10:25;8.00;99.90
23233;DHT22;11785;49.500;8.288;2024-03-29T06:12:51;8.00;99.90
23233;DHT22;11785;49.500;8.288;2024-03-29T06:15:16;8.00;99.90
23233;DHT22;11785;49.500;8.288;2024-03-29T06:18:01;8.00;99.90
23233;DHT22;11785;49.500;8.288;2024-03-29T06:20:27;8.00;99.80
23233;DHT22;11785;49.500;8.288;2024-03-29T06:22:53;8.10;99.60
23233;DHT22;11785;49.500;8.288;2024-03-29T06:25:18;8.10;99.90
23233;DHT22;11785;49.500;8.288;2024-03-29T06:27:45;8.10;99.90
23233;DHT22;11785;49.500;8.288;2024-03-29T06:30:13;8.20;99.90
23233;DHT22;11785;49.500;8.288;2024-03-29T06:32:39;8.30;99.90
23233;DHT22;11785;49.500;8.288;2024-03-29T06:35:05;8.30;99.90
23233;DHT22;11785;49.500;8.288;2024-03-29T06:37:31;8.40;99.90
23233;DHT22;11785;49.500;8.288;2024-03-29T06:39:57;8.50;99.90
23233;DHT22;11785;49.500;8.288;2024-03-29T06:42:23;8.50;99.90
23233;DHT22;11785;49.500;8.288;2024-03-29T06:44:48;8.60;99.90
23233;DHT22;11785;49.500;8.288;2024-03-29T06:47:14;8.60;99.90
23233;DHT22;11785;49.500;8.288;2024-03-29T06:49:40;8.70;99.90
23233;DHT22;11785;49.500;8.288;2024-03-29T06:52:06;8.70;99.90
23233;DHT22;11785;49.500;8.288;2024-03-29T06:54:31;8.80;99.90
23233;DHT22;11785;49.500;8.288;2024-03-29T06:56:58;8.90;99.90
23233;DHT22;11785;49.500;8.288;2024-03-29T06:59:24;9.00;99.70
23233;DHT22;11785;49.500;8.288;2024-03-29T07:01:50;9.10;98.60
23233;DHT22;11785;49.500;8.288;2024-03-29T07:04:24;9.20;98.10
23233;DHT22;11785;49.500;8.288;2024-03-29T07:06:51;9.30;97.90
23233;DHT22;11785;49.500;8.288;2024-03-29T07:09:21;9.30;98.30
23233;DHT22;11785;49.500;8.288;2024-03-29T07:11:48;9.40;98.20
23233;DHT22;11785;49.500;8.288;2024-03-29T07:14:15;9.40;98.40
23233;DHT22;11785;49.500;8.288;2024-03-29T07:16:40;9.30;98.80
23233;DHT22;11785;49.500;8.288;2024-03-29T07:19:06;9.20;99.60
23233;DHT22;11785;49.500;8.288;2024-03-29T07:21:32;9.20;99.90
23233;DHT22;11785;49.500;8.288;2024-03-29T07:23:57;9.20;99.90
23233;DHT22;11785;49.500;8.288;2024-03-29T07:26:23;9.10;99.90
23233;DHT22;11785;49.500;8.288;2024-03-29T07:28:48;9.10;99.90
23233;DHT22;11785;49.500;8.288;2024-03-29T07:31:14;9.10;99.90
23233;DHT22;11785;49.500;8.288;2024-03-29T07:33:40;9.10;99.90
23233;DHT22;11785;49.500;8.288;2024-03-29T07:36:05;9.20;99.90
23233;DHT22;11785;49.500;8.288;2024-03-29T07:38:31;9.30;99.90
23233;DHT22;11785;49.500;8.288;2024-03-29T07:40:57;9.40;99.90
23233;DHT22;11785;49.500;8.288;2024-03-29T07:43:23;9.60;99.90
23233;DHT22;11785;49.500;8.288;2024-03-29T07:45:49;9.60;98.50
23233;DHT22;11785;49.500;8.288;2024-03-29T07:48:16;9.70;98.10
23233;DHT22;11785;49.500;8.288;2024-03-29T07:50:43;9.90;97.50
23233;DHT22;11785;49.500;8.288;2024-03-29T07:53:09;10.00;96.40
23233;DHT22;11785;49.500;8.288;2024-03-29T07:55:39;10.10;95.50
23233;DHT22;11785;49.500;8.288;2024-03-29T07:58:05;10.10;94.40
23233;DHT22;11785;49.500;8.288;2024-03-29T08:00:34;10.20;94.40
23233;DHT22;11785;49.500;8.288;2024-03-29T08:03:00;10.30;93.30
23233;DHT22;11785;49.500;8.288;2024-03-29T08:05:29;10.40;92.20
23233;DHT22;11785;49.500;8.288;2024-03-29T08:07:55;10.40;91.00
23233;DHT22;11785;49.500;8.288;2024-03-29T08:10:21;10.40;91.90
23233;DHT22;11785;49.500;8.288;2024-03-29T08:12:46;10.40;91.40
23233;DHT22;11785;49.500;8.288;2024-03-29T08:15:12;10.30;91.10
23233;DHT22;11785;49.500;8.288;2024-03-29T08:17:37;10.30;91.40
23233;DHT22;11785;49.500;8.288;2024-03-29T08:20:04;10.30;91.30
23233;DHT22;11785;49.500;8.288;2024-03-29T08:22:29;10.30;91.70
23233;DHT22;11785;49.500;8.288;2024-03-29T08:24:58;10.20;91.40
23233;DHT22;11785;49.500;8.288;2024-03-29T08:27:24;10.20;91.30
23233;DHT22;11785;49.500;8.288;2024-03-29T08:29:49;10.20;91.70
23233;DHT22;11785;49.500;8.288;2024-03-29T08:32:15;10.20;91.90
23233;DHT22;11785;49.500;8.288;2024-03-29T08:34:41;10.20;91.90
23233;DHT22;11785;49.500;8.288;2024-03-29T08:37:07;10.20;91.90
23233;DHT22;11785;49.500;8.288;2024-03-29T08:39:32;10.10;92.30
23233;DHT22;11785;49.500;8.288;2024-03-29T08:41:59;10.10;92.50
23233;DHT22;11785;49.500;8.288;2024-03-29T08:44:28;10.10;91.80
23233;DHT22;11785;49.500;8.288;2024-03-29T08:46:53;10.10;92.60
23233;DHT22;11785;49.500;8.288;2024-03-29T08:49:22;10.00;93.30
23233;DHT22;11785;49.500;8.288;2024-03-29T08:51:47;9.90;93.40
23233;DHT22;11785;49.500;8.288;2024-03-29T08:54:13;9.90;94.10
23233;DHT22;11785;49.500;8.288;2024-03-29T08:56:39;10.00;94.00
23233;DHT22;11785;49.500;8.288;2024-03-29T08:59:06;9.90;95.20
23233;DHT22;11785;49.500;8.288;2024-03-29T09:01:44;9.90;94.90
23233;DHT22;11785;49.500;8.288;2024-03-29T09:04:09;10.00;94.90
23233;DHT22;11785;49.500;8.288;2024-03-29T09:06:38;10.00;94.60
23233;DHT22;11785;49.500;8.288;2024-03-29T09:09:07;10.10;94.80
23233;DHT22;11785;49.500;8.288;2024-03-29T09:11:33;10.10;94.30
23233;DHT22;11785;49.500;8.288;2024-03-29T09:13:59;10.00;94.10
23233;DHT22;11785;49.500;8.288;2024-03-29T09:16:26;9.90;95.10
23233;DHT22;11785;49.500;8.288;2024-03-29T09:18:54;9.80;95.90
23233;DHT22;11785;49.500;8.288;2024-03-29T09:21:19;9.70;96.70
23233;DHT22;11785;49.500;8.288;2024-03-29T09:23:46;9.60;97.40
23233;DHT22;11785;49.500;8.288;2024-03-29T09:26:11;9.60;97.70
23233;DHT22;11785;49.500;8.288;2024-03-29T09:28:39;9.50;99.20
23233;DHT22;11785;49.500;8.288;2024-03-29T09:31:05;9.50;99.60
23233;DHT22;11785;49.500;8.288;2024-03-29T09:33:31;9.40;99.90
23233;DHT22;11785;49.500;8.288;2024-03-29T09:35:57;9.40;99.90
23233;DHT22;11785;49.500;8.288;2024-03-29T09:38:26;9.30;99.90
23233;DHT22;11785;49.500;8.288;2024-03-29T09:41:14;9.20;99.90
23233;DHT22;11785;49.500;8.288;2024-03-29T09:43:44;9.20;99.90
23233;DHT22;11785;49.500;8.288;2024-03-29T09:46:10;9.30;99.90
23233;DHT22;11785;49.500;8.288;2024-03-29T09:48:37;9.30;99.90
23233;DHT22;11785;49.500;8.288;2024-03-29T09:51:07;9.40;99.90
23233;DHT22;11785;49.500;8.288;2024-03-29T09:53:34;9.40;99.90
23233;DHT22;11785;49.500;8.288;2024-03-29T09:56:06;9.50;99.90
23233;DHT22;11785;49.500;8.288;2024-03-29T09:58:36;9.50;99.90
23233;DHT22;11785;49.500;8.288;2024-03-29T10:01:06;9.70;99.90
23233;DHT22;11785;49.500;8.288;2024-03-29T10:03:40;9.80;99.90
23233;DHT22;11785;49.500;8.288;2024-03-29T10:06:08;10.00;99.90
23233;DHT22;11785;49.500;8.288;2024-03-29T10:08:34;10.20;99.60
23233;DHT22;11785;49.500;8.288;2024-03-29T10:11:00;10.10;99.60
23233;DHT22;11785;49.500;8.288;2024-03-29T10:13:26;10.20;99.40
23233;DHT22;11785;49.500;8.288;2024-03-29T10:15:52;10.40;99.20
23233;DHT22;11785;49.500;8.288;2024-03-29T10:18:24;10.80;97.70
23233;DHT22;11785;49.500;8.288;2024-03-29T10:23:26;11.10;95.60
23233;DHT22;11785;49.500;8.288;2024-03-29T10:25:52;11.40;94.90
23233;DHT22;11785;49.500;8.288;2024-03-29T10:28:19;11.70;93.70
23233;DHT22;11785;49.500;8.288;2024-03-29T10:30:44;11.90;92.00
23233;DHT22;11785;49.500;8.288;2024-03-29T10:33:10;12.00;91.60
23233;DHT22;11785;49.500;8.288;2024-03-29T10:35:37;11.90;92.10
23233;DHT22;11785;49.500;8.288;2024-03-29T10:38:03;12.10;92.00
23233;DHT22;11785;49.500;8.288;2024-03-29T10:40:30;12.50;89.20
23233;DHT22;11785;49.500;8.288;2024-03-29T10:42:56;12.60;89.20
23233;DHT22;11785;49.500;8.288;2024-03-29T10:45:22;13.10;86.50
23233;DHT22;11785;49.500;8.288;2024-03-29T10:47:49;13.20;82.90
23233;DHT22;11785;49.500;8.288;2024-03-29T10:50:17;12.80;84.50
23233;DHT22;11785;49.500;8.288;2024-03-29T10:52:43;12.60;87.60
23233;DHT22;11785;49.500;8.288;2024-03-29T10:55:12;12.90;86.50
23233;DHT22;11785;49.500;8.288;2024-03-29T10:57:41;13.10;85.00
23233;DHT22;11785;49.500;8.288;2024-03-29T11:00:12;13.30;82.30
23233;DHT22;11785;49.500;8.288;2024-03-29T11:02:56;13.40;82.90
23233;DHT22;11785;49.500;8.288;2024-03-29T11:05:23;13.00;85.20
23233;DHT22;11785;49.500;8.288;2024-03-29T11:07:52;13.00;85.80
23233;DHT22;11785;49.500;8.288;2024-03-29T11:10:32;12.90;87.20
23233;DHT22;11785;49.500;8.288;2024-03-29T11:15:56;12.70;90.00
23233;DHT22;11785;49.500;8.288;2024-03-29T11:18:22;12.70;90.50
23233;DHT22;11785;49.500;8.288;2024-03-29T11:20:50;12.50;91.50
23233;DHT22;11785;49.500;8.288;2024-03-29T11:23:18;12.40;92.20
23233;DHT22;11785;49.500;8.288;2024-03-29T11:25:50;12.50;93.10
23233;DHT22;11785;49.500;8.288;2024-03-29T11:30:52;12.50;93.60
23233;DHT22;11785;49.500;8.288;2024-03-29T11:36:23;13.20;90.90
23233;DHT22;11785;49.500;8.288;2024-03-29T11:38:51;13.30;89.20
23233;DHT22;11785;49.500;8.288;2024-03-29T11:41:21;13.20;89.10
23233;DHT22;11785;49.500;8.288;2024-03-29T11:43:50;13.10;90.40
23233;DHT22;11785;49.500;8.288;2024-03-29T11:46:16;13.00;91.00
23233;DHT22;11785;49.500;8.288;2024-03-29T11:48:42;12.70;91.90
23233;DHT22;11785;49.500;8.288;2024-03-29T11:51:12;12.60;93.10
23233;DHT22;11785;49.500;8.288;2024-03-29T11:53:39;12.60;94.00
23233;DHT22;11785;49.500;8.288;2024-03-29T11:56:06;12.70;93.70
23233;DHT22;11785;49.500;8.288;2024-03-29T11:58:33;12.60;94.80
23233;DHT22;11785;49.500;8.288;2024-03-29T12:01:00;12.60;95.20
23233;DHT22;11785;49.500;8.288;2024-03-29T12:03:28;12.60;95.40
23233;DHT22;11785;49.500;8.288;2024-03-29T12:05:55;12.60;95.10
23233;DHT22;11785;49.500;8.288;2024-03-29T12:08:31;12.60;95.80
23233;DHT22;11785;49.500;8.288;2024-03-29T12:10:58;12.70;95.70
23233;DHT22;11785;49.500;8.288;2024-03-29T12:13:25;12.70;96.30
23233;DHT22;11785;49.500;8.288;2024-03-29T12:15:51;12.80;95.70
23233;DHT22;11785;49.500;8.288;2024-03-29T12:18:18;12.60;96.90
23233;DHT22;11785;49.500;8.288;2024-03-29T12:20:45;12.50;97.00
23233;DHT22;11785;49.500;8.288;2024-03-29T12:23:12;12.50;98.10
23233;DHT22;11785;49.500;8.288;2024-03-29T12:25:39;12.50;97.80
23233;DHT22;11785;49.500;8.288;2024-03-29T12:28:05;12.60;97.80
23233;DHT22;11785;49.500;8.288;2024-03-29T12:30:33;12.50;98.70
23233;DHT22;11785;49.500;8.288;2024-03-29T12:33:06;12.60;98.70
23233;DHT22;11785;49.500;8.288;2024-03-29T12:35:33;12.60;98.20
23233;DHT22;11785;49.500;8.288;2024-03-29T12:38:01;12.60;98.40
23233;DHT22;11785;49.500;8.288;2024-03-29T12:40:28;12.80;98.10
23233;DHT22;11785;49.500;8.288;2024-03-29T12:42:56;12.90;97.00
23233;DHT22;11785;49.500;8.288;2024-03-29T12:45:22;12.70;97.40
23233;DHT22;11785;49.500;8.288;2024-03-29T12:47:48;12.60;98.30
23233;DHT22;11785;49.500;8.288;2024-03-29T12:50:44;12.30;99.20
23233;DHT22;11785;49.500;8.288;2024-03-29T12:53:12;12.20;99.90
23233;DHT22;11785;49.500;8.288;2024-03-29T12:55:45;12.20;99.90
23233;DHT22;11785;49.500;8.288;2024-03-29T12:58:15;12.20;99.90
23233;DHT22;11785;49.500;8.288;2024-03-29T13:00:42;12.30;99.90
23233;DHT22;11785;49.500;8.288;2024-03-29T13:03:08;12.30;99.90
23233;DHT22;11785;49.500;8.288;2024-03-29T13:05:37;12.30;99.90
23233;DHT22;11785;49.500;8.288;2024-03-29T13:08:07;12.20;99.90
23233;DHT22;11785;49.500;8.288;2024-03-29T13:10:34;12.20;99.90
23233;DHT22;11785;49.500;8.288;2024-03-29T13:13:00;12.30;99.90
23233;DHT22;11785;49.500;8.288;2024-03-29T13:15:27;12.40;99.90
23233;DHT22;11785;49.500;8.288;2024-03-29T13:17:54;12.30;99.90
23233;DHT22;11785;49.500;8.288;2024-03-29T13:20:20;12.30;99.90
23233;DHT22;11785;49.500;8.288;2024-03-29T13:22:48;12.40;99.90
23233;DHT22;11785;49.500;8.288;2024-03-29T13:25:19;12.40;99.90
23233;DHT22;11785;49.500;8.288;2024-03-29T13:27:49;12.50;99.90
23233;DHT22;11785;49.500;8.288;2024-03-29T13:30:20;12.60;99.90
23233;DHT22;11785;49.500;8.288;2024-03-29T13:32:46;12.60;99.90
23233;DHT22;11785;49.500;8.288;2024-03-29T13:35:11;12.50;99.90
23233;DHT22;11785;49.500;8.288;2024-03-29T13:37:41;12.50;99.90
23233;DHT22;11785;49.500;8.288;2024-03-29T13:40:09;12.40;99.90
23233;DHT22;11785;49.500;8.288;2024-03-29T13:42:38;12.30;99.90
23233;DHT22;11785;49.500;8.288;2024-03-29T13:45:05;12.20;99.90
23233;DHT22;11785;49.500;8.288;2024-03-29T13:47:42;12.10;99.90
23233;DHT22;11785;49.500;8.288;2024-03-29T13:50:09;12.00;99.90
23233;DHT22;11785;49.500;8.288;2024-03-29T13:52:35;11.90;99.90
23233;DHT22;11785;49.500;8.288;2024-03-29T13:55:02;12.00;99.90
23233;DHT22;11785;49.500;8.288;2024-03-29T13:57:29;12.00;99.90
23233;DHT22;11785;49.500;8.288;2024-03-29T13:59:55;12.00;99.90
23233;DHT22;11785;49.500;8.288;2024-03-29T14:02:20;12.20;99.90
23233;DHT22;11785;49.500;8.288;2024-03-29T14:04:46;12.20;99.90
23233;DHT22;11785;49.500;8.288;2024-03-29T14:07:14;12.30;99.90
23233;DHT22;11785;49.500;8.288;2024-03-29T14:09:41;12.30;99.90
23233;DHT22;11785;49.500;8.288;2024-03-29T14:12:07;12.50;99.90
23233;DHT22;11785;49.500;8.288;2024-03-29T14:17:01;12.70;99.90
23233;DHT22;11785;49.500;8.288;2024-03-29T14:19:38;12.90;99.90
23233;DHT22;11785;49.500;8.288;2024-03-29T14:22:04;13.10;99.90
23233;DHT22;11785;49.500;8.288;2024-03-29T14:24:30;13.20;99.90
23233;DHT22;11785;49.500;8.288;2024-03-29T14:26:58;13.20;99.90
23233;DHT22;11785;49.500;8.288;2024-03-29T14:29:24;13.20;99.90
23233;DHT22;11785;49.500;8.288;2024-03-29T14:31:50;13.30;99.90
23233;DHT22;11785;49.500;8.288;2024-03-29T14:34:16;13.50;99.60
23233;DHT22;11785;49.500;8.288;2024-03-29T14:36:42;13.60;99.10
23233;DHT22;11785;49.500;8.288;2024-03-29T14:39:08;13.70;98.20
23233;DHT22;11785;49.500;8.288;2024-03-29T14:41:35;13.70;97.50
23233;DHT22;11785;49.500;8.288;2024-03-29T14:44:02;13.60;97.70
23233;DHT22;11785;49.500;8.288;2024-03-29T14:46:28;13.90;97.90
23233;DHT22;11785;49.500;8.288;2024-03-29T14:48:54;15.10;94.50
23233;DHT22;11785;49.500;8.288;2024-03-29T14:51:19;17.00;70.30
23233;DHT22;11785;49.500;8.288;2024-03-29T14:53:46;16.50;68.60
23233;DHT22;11785;49.500;8.288;2024-03-29T14:56:18;15.70;76.40
23233;DHT22;11785;49.500;8.288;2024-03-29T14:58:43;14.90;83.70
23233;DHT22;11785;49.500;8.288;2024-03-29T15:01:10;14.40;89.80
23233;DHT22;11785;49.500;8.288;2024-03-29T15:03:36;14.10;92.20
23233;DHT22;11785;49.500;8.288;2024-03-29T15:06:01;14.00;94.30
23233;DHT22;11785;49.500;8.288;2024-03-29T15:08:27;13.80;95.20
23233;DHT22;11785;49.500;8.288;2024-03-29T15:11:02;13.80;95.10
23233;DHT22;11785;49.500;8.288;2024-03-29T15:13:29;13.60;96.10
23233;DHT22;11785;49.500;8.288;2024-03-29T15:15:58;13.50;97.40
23233;DHT22;11785;49.500;8.288;2024-03-29T15:18:24;13.50;98.10
23233;DHT22;11785;49.500;8.288;2024-03-29T15:20:57;13.60;97.70
23233;DHT22;11785;49.500;8.288;2024-03-29T15:23:23;13.70;97.00
23233;DHT22;11785;49.500;8.288;2024-03-29T15:25:52;13.70;96.60
23233;DHT22;11785;49.500;8.288;2024-03-29T15:28:18;14.00;96.40
23233;DHT22;11785;49.500;8.288;2024-03-29T15:31:14;14.50;92.80
23233;DHT22;11785;49.500;8.288;2024-03-29T15:33:46;16.60;73.80
23233;DHT22;11785;49.500;8.288;2024-03-29T15:36:12;17.90;59.80
23233;DHT22;11785;49.500;8.288;2024-03-29T15:38:38;17.70;59.70
23233;DHT22;11785;49.500;8.288;2024-03-29T15:41:04;18.20;59.60
23233;DHT22;11785;49.500;8.288;2024-03-29T15:43:33;18.30;59.50
23233;DHT22;11785;49.500;8.288;2024-03-29T15:46:02;18.30;59.40
23233;DHT22;11785;49.500;8.288;2024-03-29T15:48:28;19.30;59.10
23233;DHT22;11785;49.500;8.288;2024-03-29T15:50:53;19.90;58.80
23233;DHT22;11785;49.500;8.288;2024-03-29T15:53:19;20.20;58.70
23233;DHT22;11785;49.500;8.288;2024-03-29T15:55:46;20.60;58.50